sensor_id;sensor_type;location;lat;lon;timestamp;pressure;altitude;pressure_sealevel;temperature;humidity
19676;BME280;39539;52.202;9.876;2023-04-12T00:01:33;100260.63;;;3.11;100.00
19676;BME280;39539;52.202;9.876;2023-04-12T00:03:59;100260.38;;;3.37;100.00
19676;BME280;39539;52.202;9.876;2023-04-12T00:06:27;100248.63;;;3.56;100.00
19676;BME280;39539;52.202;9.876;2023-04-12T00:08:57;100244.63;;;3.69;100.00
19676;BME280;39539;52.202;9.876;2023-04-12T00:11:22;100233.41;;;3.75;100.00
19676;BME280;39539;52.202;9.876;2023-04-12T00:13:48;100225.78;;;3.88;100.00
19676;BME280;39539;52.202;9.876;2023-04-12T00:16:13;100221.03;;;3.83;100.00
19676;BME280;39539;52.202;9.876;2023-04-12T00:18:40;100214.72;;;3.93;100.00
19676;BME280;39539;52.202;9.876;2023-04-12T00:21:07;100204.72;;;3.96;100.00
19676;BME280;39539;52.202;9.876;2023-04-12T00:23:32;100200.13;;;4.13;99.64
19676;BME280;39539;52.202;9.876;2023-04-12T00:25:58;100192.72;;;4.17;99.46
19676;BME280;39539;52.202;9.876;2023-04-12T00:28:23;100183.91;;;4.24;98.62
19676;BME280;39539;52.202;9.876;2023-04-12T00:30:49;100184.03;;;4.31;98.09
19676;BME280;39539;52.202;9.876;2023-04-12T00:33:14;100179.69;;;4.38;98.29
19676;BME280;39539;52.202;9.876;2023-04-12T00:35:39;100161.34;;;4.30;97.23
19676;BME280;39539;52.202;9.876;2023-04-12T00:38:05;100188.59;;;4.37;98.96
19676;BME280;39539;52.202;9.876;2023-04-12T00:40:34;100177.84;;;4.24;97.82
19676;BME280;39539;52.202;9.876;2023-04-12T00:43:00;100164.63;;;4.32;95.56
19676;BME280;39539;52.202;9.876;2023-04-12T00:45:25;100161.75;;;4.42;94.31
19676;BME280;39539;52.202;9.876;2023-04-12T00:47:53;100165.03;;;4.59;91.31
19676;BME280;39539;52.202;9.876;2023-04-12T00:50:18;100157.41;;;4.64;89.91
19676;BME280;39539;52.202;9.876;2023-04-12T00:52:45;100150.34;;;4.64;90.82
19676;BME280;39539;52.202;9.876;2023-04-12T00:55:10;100146.78;;;4.57;92.90
19676;BME280;39539;52.202;9.876;2023-04-12T00:57:37;100136.53;;;4.47;94.25
19676;BME280;39539;52.202;9.876;2023-04-12T01:00:04;100123.59;;;4.08;99.25
19676;BME280;39539;52.202;9.876;2023-04-12T01:02:33;100121.91;;;3.92;100.00
19676;BME280;39539;52.202;9.876;2023-04-12T01:04:59;100121.31;;;3.82;100.00
19676;BME280;39539;52.202;9.876;2023-04-12T01:07:38;100112.94;;;3.64;100.00
19676;BME280;39539;52.202;9.876;2023-04-12T01:10:20;100092.63;;;3.57;100.00
19676;BME280;39539;52.202;9.876;2023-04-12T01:12:56;100084.44;;;3.52;100.00
19676;BME280;39539;52.202;9.876;2023-04-12T01:15:26;100100.50;;;3.57;100.00
19676;BME280;39539;52.202;9.876;2023-04-12T01:18:05;100098.16;;;3.63;100.00
19676;BME280;39539;52.202;9.876;2023-04-12T01:20:54;100100.09;;;3.69;100.00
19676;BME280;39539;52.202;9.876;2023-04-12T01:29:01;100079.34;;;4.12;96.13
19676;BME280;39539;52.202;9.876;2023-04-12T01:31:28;100080.28;;;4.34;92.10
19676;BME280;39539;52.202;9.876;2023-04-12T01:33:56;100068.56;;;4.51;89.66
19676;BME280;39539;52.202;9.876;2023-04-12T01:36:23;100075.28;;;4.68;88.72
19676;BME280;39539;52.202;9.876;2023-04-12T01:38:51;100073.81;;;4.51;91.81
19676;BME280;39539;52.202;9.876;2023-04-12T01:41:19;100053.03;;;4.12;96.65
19676;BME280;39539;52.202;9.876;2023-04-12T01:43:46;100043.03;;;3.92;98.22
19676;BME280;39539;52.202;9.876;2023-04-12T01:46:14;100046.44;;;3.78;100.00
19676;BME280;39539;52.202;9.876;2023-04-12T01:48:46;100041.78;;;3.88;100.00
19676;BME280;39539;52.202;9.876;2023-04-12T01:51:17;100041.78;;;4.03;99.15
19676;BME280;39539;52.202;9.876;2023-04-12T01:53:56;100035.97;;;4.08;98.46
19676;BME280;39539;52.202;9.876;2023-04-12T01:56:23;100040.44;;;4.22;97.80
19676;BME280;39539;52.202;9.876;2023-04-12T01:58:52;100038.72;;;4.29;97.54
19676;BME280;39539;52.202;9.876;2023-04-12T02:01:18;100034.72;;;4.18;100.00
19676;BME280;39539;52.202;9.876;2023-04-12T02:03:44;100027.19;;;4.15;100.00
19676;BME280;39539;52.202;9.876;2023-04-12T02:06:10;100026.09;;;4.24;100.00
19676;BME280;39539;52.202;9.876;2023-04-12T02:08:36;100021.66;;;4.25;100.00
19676;BME280;39539;52.202;9.876;2023-04-12T02:11:09;100012.47;;;4.36;97.89
19676;BME280;39539;52.202;9.876;2023-04-12T02:13:35;100011.84;;;4.48;96.08
19676;BME280;39539;52.202;9.876;2023-04-12T02:16:00;100008.81;;;4.66;93.65
19676;BME280;39539;52.202;9.876;2023-04-12T02:18:27;100009.41;;;4.83;91.30
19676;BME280;39539;52.202;9.876;2023-04-12T02:20:53;99993.78;;;4.97;90.12
19676;BME280;39539;52.202;9.876;2023-04-12T02:23:18;99996.44;;;5.18;87.68
19676;BME280;39539;52.202;9.876;2023-04-12T02:25:44;99983.09;;;5.26;87.50
19676;BME280;39539;52.202;9.876;2023-04-12T02:28:11;99979.75;;;5.32;86.35
19676;BME280;39539;52.202;9.876;2023-04-12T02:30:37;99976.34;;;5.38;86.82
19676;BME280;39539;52.202;9.876;2023-04-12T02:33:02;99954.44;;;5.38;86.83
19676;BME280;39539;52.202;9.876;2023-04-12T02:35:30;99947.13;;;5.40;84.84
19676;BME280;39539;52.202;9.876;2023-04-12T02:37:56;99937.28;;;5.49;83.42
19676;BME280;39539;52.202;9.876;2023-04-12T02:40:22;99939.16;;;5.55;83.93
19676;BME280;39539;52.202;9.876;2023-04-12T02:42:47;99929.03;;;5.58;82.68
19676;BME280;39539;52.202;9.876;2023-04-12T02:45:13;99934.97;;;5.67;82.90
19676;BME280;39539;52.202;9.876;2023-04-12T02:47:38;99916.84;;;5.57;84.53
19676;BME280;39539;52.202;9.876;2023-04-12T02:50:05;99916.91;;;5.64;83.92
19676;BME280;39539;52.202;9.876;2023-04-12T02:52:31;99916.78;;;5.72;82.67
19676;BME280;39539;52.202;9.876;2023-04-12T02:54:57;99916.81;;;5.85;82.35
19676;BME280;39539;52.202;9.876;2023-04-12T02:57:23;99900.00;;;5.87;81.71
19676;BME280;39539;52.202;9.876;2023-04-12T02:59:52;99895.53;;;5.87;81.05
19676;BME280;39539;52.202;9.876;2023-04-12T03:02:18;99885.00;;;5.87;81.64
19676;BME280;39539;52.202;9.876;2023-04-12T03:04:44;99876.88;;;5.89;81.35
19676;BME280;39539;52.202;9.876;2023-04-12T03:07:11;99871.59;;;5.89;81.42
19676;BME280;39539;52.202;9.876;2023-04-12T03:09:36;99869.16;;;5.87;81.15
19676;BME280;39539;52.202;9.876;2023-04-12T03:12:02;99862.06;;;5.88;82.31
19676;BME280;39539;52.202;9.876;2023-04-12T03:14:28;99854.56;;;5.84;83.13
19676;BME280;39539;52.202;9.876;2023-04-12T03:16:53;99842.78;;;5.80;84.46
19676;BME280;39539;52.202;9.876;2023-04-12T03:19:19;99830.81;;;5.78;83.41
19676;BME280;39539;52.202;9.876;2023-04-12T03:21:44;99813.72;;;5.67;83.78
19676;BME280;39539;52.202;9.876;2023-04-12T03:24:10;99813.53;;;5.75;84.17
19676;BME280;39539;52.202;9.876;2023-04-12T03:26:35;99808.66;;;5.72;83.06
19676;BME280;39539;52.202;9.876;2023-04-12T03:29:02;99808.66;;;5.72;83.76
19676;BME280;39539;52.202;9.876;2023-04-12T03:31:33;99811.88;;;5.68;84.21
19676;BME280;39539;52.202;9.876;2023-04-12T03:33:59;99796.47;;;5.71;85.43
19676;BME280;39539;52.202;9.876;2023-04-12T03:36:24;99794.06;;;5.70;85.91
19676;BME280;39539;52.202;9.876;2023-04-12T03:38:51;99795.47;;;5.72;85.40
19676;BME280;39539;52.202;9.876;2023-04-12T03:41:17;99784.53;;;5.75;84.03
19676;BME280;39539;52.202;9.876;2023-04-12T03:43:42;99775.59;;;5.76;83.83
19676;BME280;39539;52.202;9.876;2023-04-12T03:46:07;99777.03;;;5.79;83.67
19676;BME280;39539;52.202;9.876;2023-04-12T03:48:33;99754.09;;;5.73;83.51
19676;BME280;39539;52.202;9.876;2023-04-12T03:50:59;99767.72;;;5.83;83.06
19676;BME280;39539;52.202;9.876;2023-04-12T03:53:25;99767.31;;;5.79;83.33
19676;BME280;39539;52.202;9.876;2023-04-12T03:55:55;99760.19;;;5.73;84.21
19676;BME280;39539;52.202;9.876;2023-04-12T03:58:21;99757.09;;;5.63;84.52
19676;BME280;39539;52.202;9.876;2023-04-12T04:00:46;99760.00;;;5.75;84.95
19676;BME280;39539;52.202;9.876;2023-04-12T04:03:13;99754.28;;;5.71;86.08
19676;BME280;39539;52.202;9.876;2023-04-12T04:05:39;99753.06;;;5.67;85.74
19676;BME280;39539;52.202;9.876;2023-04-12T04:08:04;99752.69;;;5.70;85.86
19676;BME280;39539;52.202;9.876;2023-04-12T04:10:32;99743.16;;;5.69;85.74
19676;BME280;39539;52.202;9.876;2023-04-12T04:12:57;99732.00;;;5.74;83.91
19676;BME280;39539;52.202;9.876;2023-04-12T04:15:24;99736.91;;;5.83;84.56
19676;BME280;39539;52.202;9.876;2023-04-12T04:17:49;99722.88;;;5.83;85.14
19676;BME280;39539;52.202;9.876;2023-04-12T04:20:14;99715.00;;;5.90;82.48
19676;BME280;39539;52.202;9.876;2023-04-12T04:22:42;99713.44;;;5.95;82.67
19676;BME280;39539;52.202;9.876;2023-04-12T04:25:08;99707.34;;;5.95;81.65
19676;BME280;39539;52.202;9.876;2023-04-12T04:27:34;99705.72;;;6.00;81.85
19676;BME280;39539;52.202;9.876;2023-04-12T04:30:03;99695.59;;;5.97;81.94
19676;BME280;39539;52.202;9.876;2023-04-12T04:32:29;99694.97;;;6.02;82.06
19676;BME280;39539;52.202;9.876;2023-04-12T04:34:56;99698.63;;;6.07;81.51
19676;BME280;39539;52.202;9.876;2023-04-12T04:37:27;99686.44;;;6.13;81.27
19676;BME280;39539;52.202;9.876;2023-04-12T04:39:52;99690.09;;;6.25;80.60
19676;BME280;39539;52.202;9.876;2023-04-12T04:42:17;99687.47;;;6.32;80.40
19676;BME280;39539;52.202;9.876;2023-04-12T04:44:43;99682.59;;;6.36;79.86
19676;BME280;39539;52.202;9.876;2023-04-12T04:47:08;99682.00;;;6.40;79.50
19676;BME280;39539;52.202;9.876;2023-04-12T04:49:36;99684.22;;;6.43;79.51
19676;BME280;39539;52.202;9.876;2023-04-12T04:52:02;99670.03;;;6.38;79.74
19676;BME280;39539;52.202;9.876;2023-04-12T04:54:28;99670.63;;;6.46;77.81
19676;BME280;39539;52.202;9.876;2023-04-12T04:56:53;99661.47;;;6.49;78.81
19676;BME280;39539;52.202;9.876;2023-04-12T04:59:19;99666.53;;;6.50;79.89
19676;BME280;39539;52.202;9.876;2023-04-12T05:01:44;99655.59;;;6.47;80.76
19676;BME280;39539;52.202;9.876;2023-04-12T05:04:10;99652.31;;;6.58;80.66
19676;BME280;39539;52.202;9.876;2023-04-12T05:06:37;99638.72;;;6.61;81.27
19676;BME280;39539;52.202;9.876;2023-04-12T05:09:03;99657.78;;;6.77;80.37
19676;BME280;39539;52.202;9.876;2023-04-12T05:11:29;99653.09;;;6.79;81.27
19676;BME280;39539;52.202;9.876;2023-04-12T05:13:58;99653.69;;;6.81;82.64
19676;BME280;39539;52.202;9.876;2023-04-12T05:16:23;99650.44;;;6.85;82.94
19676;BME280;39539;52.202;9.876;2023-04-12T05:18:49;99647.97;;;6.97;81.97
19676;BME280;39539;52.202;9.876;2023-04-12T05:21:14;99637.75;;;7.07;81.05
19676;BME280;39539;52.202;9.876;2023-04-12T05:23:44;99636.69;;;7.22;80.50
19676;BME280;39539;52.202;9.876;2023-04-12T05:26:10;99642.94;;;7.34;80.19
19676;BME280;39539;52.202;9.876;2023-04-12T05:28:36;99629.47;;;7.42;79.26
19676;BME280;39539;52.202;9.876;2023-04-12T05:31:02;99633.91;;;7.48;78.35
19676;BME280;39539;52.202;9.876;2023-04-12T05:33:29;99615.22;;;7.43;77.74
19676;BME280;39539;52.202;9.876;2023-04-12T05:35:56;99621.19;;;7.63;78.29
19676;BME280;39539;52.202;9.876;2023-04-12T05:38:22;99614.63;;;7.73;78.26
19676;BME280;39539;52.202;9.876;2023-04-12T05:40:48;99596.28;;;7.78;76.45
19676;BME280;39539;52.202;9.876;2023-04-12T05:43:17;99604.38;;;7.83;78.02
19676;BME280;39539;52.202;9.876;2023-04-12T05:45:42;99599.03;;;7.90;74.86
19676;BME280;39539;52.202;9.876;2023-04-12T05:48:08;99592.91;;;7.96;74.41
19676;BME280;39539;52.202;9.876;2023-04-12T05:50:34;99586.38;;;7.98;73.11
19676;BME280;39539;52.202;9.876;2023-04-12T05:53:00;99583.13;;;7.96;72.80
19676;BME280;39539;52.202;9.876;2023-04-12T05:55:27;99575.72;;;7.80;73.61
19676;BME280;39539;52.202;9.876;2023-04-12T05:57:52;99562.75;;;7.72;73.47
19676;BME280;39539;52.202;9.876;2023-04-12T06:00:19;99573.44;;;7.83;74.08
19676;BME280;39539;52.202;9.876;2023-04-12T06:02:46;99574.69;;;7.81;74.06
19676;BME280;39539;52.202;9.876;2023-04-12T06:05:13;99561.97;;;7.96;73.13
19676;BME280;39539;52.202;9.876;2023-04-12T06:07:40;99566.59;;;8.63;72.56
19676;BME280;39539;52.202;9.876;2023-04-12T06:10:13;99587.47;;;11.14;64.27
19676;BME280;39539;52.202;9.876;2023-04-12T06:12:40;99593.13;;;13.95;55.95
19676;BME280;39539;52.202;9.876;2023-04-12T06:15:07;99572.66;;;16.44;50.36
19676;BME280;39539;52.202;9.876;2023-04-12T06:17:35;99560.06;;;17.93;46.16
19676;BME280;39539;52.202;9.876;2023-04-12T06:20:04;99535.59;;;18.91;44.12
19676;BME280;39539;52.202;9.876;2023-04-12T06:22:32;99525.22;;;19.88;42.34
19676;BME280;39539;52.202;9.876;2023-04-12T06:24:58;99525.25;;;20.43;41.59
19676;BME280;39539;52.202;9.876;2023-04-12T06:27:23;99508.84;;;20.95;39.37
19676;BME280;39539;52.202;9.876;2023-04-12T06:29:50;99507.53;;;20.92;39.98
19676;BME280;39539;52.202;9.876;2023-04-12T06:32:17;99500.84;;;21.80;38.81
19676;BME280;39539;52.202;9.876;2023-04-12T06:34:42;99492.13;;;21.51;38.22
19676;BME280;39539;52.202;9.876;2023-04-12T06:37:08;99489.06;;;22.07;37.91
19676;BME280;39539;52.202;9.876;2023-04-12T06:39:33;99486.59;;;23.20;36.49
19676;BME280;39539;52.202;9.876;2023-04-12T06:41:59;99483.50;;;22.52;37.33
19676;BME280;39539;52.202;9.876;2023-04-12T06:44:25;99471.53;;;22.44;37.33
19676;BME280;39539;52.202;9.876;2023-04-12T06:46:53;99464.63;;;22.29;38.28
19676;BME280;39539;52.202;9.876;2023-04-12T06:49:18;99443.06;;;22.15;37.89
19676;BME280;39539;52.202;9.876;2023-04-12T06:51:44;99433.47;;;19.60;41.12
19676;BME280;39539;52.202;9.876;2023-04-12T06:54:10;99436.00;;;18.24;44.09
19676;BME280;39539;52.202;9.876;2023-04-12T06:56:36;99436.22;;;16.87;46.04
19676;BME280;39539;52.202;9.876;2023-04-12T06:59:02;99436.16;;;16.43;48.10
19676;BME280;39539;52.202;9.876;2023-04-12T07:01:27;99424.09;;;15.19;50.14
19676;BME280;39539;52.202;9.876;2023-04-12T07:03:53;99426.56;;;14.22;53.26
19676;BME280;39539;52.202;9.876;2023-04-12T07:06:19;99436.50;;;14.36;54.65
19676;BME280;39539;52.202;9.876;2023-04-12T07:08:45;99423.50;;;13.98;54.94
19676;BME280;39539;52.202;9.876;2023-04-12T07:11:10;99408.81;;;13.47;56.84
19676;BME280;39539;52.202;9.876;2023-04-12T07:13:37;99427.66;;;13.31;57.79
19676;BME280;39539;52.202;9.876;2023-04-12T07:16:02;99425.94;;;12.92;58.84
19676;BME280;39539;52.202;9.876;2023-04-12T07:18:28;99414.47;;;12.38;59.75
19676;BME280;39539;52.202;9.876;2023-04-12T07:20:54;99411.81;;;12.38;61.29
19676;BME280;39539;52.202;9.876;2023-04-12T07:23:22;99406.84;;;12.46;60.65
19676;BME280;39539;52.202;9.876;2023-04-12T07:25:50;99426.63;;;13.79;58.83
19676;BME280;39539;52.202;9.876;2023-04-12T07:28:18;99436.50;;;16.31;53.58
19676;BME280;39539;52.202;9.876;2023-04-12T07:30:44;99430.16;;;19.17;47.03
19676;BME280;39539;52.202;9.876;2023-04-12T07:33:10;99405.34;;;20.08;44.18
19676;BME280;39539;52.202;9.876;2023-04-12T07:35:37;99402.03;;;21.20;42.94
19676;BME280;39539;52.202;9.876;2023-04-12T07:38:02;99387.72;;;22.39;41.13
19676;BME280;39539;52.202;9.876;2023-04-12T07:40:28;99357.25;;;23.20;38.57
19676;BME280;39539;52.202;9.876;2023-04-12T07:42:53;99345.72;;;24.51;37.93
19676;BME280;39539;52.202;9.876;2023-04-12T07:45:19;99360.66;;;23.00;39.63
19676;BME280;39539;52.202;9.876;2023-04-12T07:47:44;99359.44;;;23.36;40.07
19676;BME280;39539;52.202;9.876;2023-04-12T07:50:10;99339.56;;;23.14;39.08
19676;BME280;39539;52.202;9.876;2023-04-12T07:52:36;99342.81;;;22.47;40.28
19676;BME280;39539;52.202;9.876;2023-04-12T07:55:02;99325.59;;;21.59;41.31
19676;BME280;39539;52.202;9.876;2023-04-12T07:57:27;99338.66;;;20.72;42.19
19676;BME280;39539;52.202;9.876;2023-04-12T07:59:53;99322.03;;;19.51;44.20
19676;BME280;39539;52.202;9.876;2023-04-12T08:02:20;99309.22;;;18.12;44.95
19676;BME280;39539;52.202;9.876;2023-04-12T08:04:52;99310.00;;;16.13;49.58
19676;BME280;39539;52.202;9.876;2023-04-12T08:07:18;99300.41;;;15.32;52.92
19676;BME280;39539;52.202;9.876;2023-04-12T08:09:45;99305.00;;;14.50;54.55
19676;BME280;39539;52.202;9.876;2023-04-12T08:12:14;99299.84;;;14.12;55.29
19676;BME280;39539;52.202;9.876;2023-04-12T08:14:41;99307.34;;;13.42;58.36
19676;BME280;39539;52.202;9.876;2023-04-12T08:17:07;99295.78;;;12.89;59.55
19676;BME280;39539;52.202;9.876;2023-04-12T08:19:32;99286.78;;;12.63;60.47
19676;BME280;39539;52.202;9.876;2023-04-12T08:21:59;99298.25;;;12.36;61.82
19676;BME280;39539;52.202;9.876;2023-04-12T08:24:25;99311.44;;;12.21;62.64
19676;BME280;39539;52.202;9.876;2023-04-12T08:26:50;99304.47;;;11.93;63.81
19676;BME280;39539;52.202;9.876;2023-04-12T08:29:16;99320.97;;;11.90;64.89
19676;BME280;39539;52.202;9.876;2023-04-12T08:31:43;99325.84;;;11.98;65.79
19676;BME280;39539;52.202;9.876;2023-04-12T08:34:08;99332.97;;;11.93;66.22
19676;BME280;39539;52.202;9.876;2023-04-12T08:36:34;99327.69;;;11.76;67.72
19676;BME280;39539;52.202;9.876;2023-04-12T08:39:00;99334.16;;;11.85;66.97
19676;BME280;39539;52.202;9.876;2023-04-12T08:41:26;99339.09;;;11.54;67.21
19676;BME280;39539;52.202;9.876;2023-04-12T08:43:52;99334.03;;;11.53;66.58
19676;BME280;39539;52.202;9.876;2023-04-12T08:46:20;99335.94;;;11.57;67.65
19676;BME280;39539;52.202;9.876;2023-04-12T08:48:47;99327.47;;;11.38;70.21
19676;BME280;39539;52.202;9.876;2023-04-12T08:51:17;99328.78;;;11.02;71.59
19676;BME280;39539;52.202;9.876;2023-04-12T08:53:42;99340.31;;;10.91;74.38
19676;BME280;39539;52.202;9.876;2023-04-12T08:56:11;99338.94;;;10.71;76.66
19676;BME280;39539;52.202;9.876;2023-04-12T08:58:43;99331.84;;;10.60;78.80
19676;BME280;39539;52.202;9.876;2023-04-12T09:01:14;99328.09;;;10.44;78.78
19676;BME280;39539;52.202;9.876;2023-04-12T09:03:44;99328.91;;;10.28;83.45
19676;BME280;39539;52.202;9.876;2023-04-12T09:06:10;99322.06;;;10.20;82.42
19676;BME280;39539;52.202;9.876;2023-04-12T09:08:36;99312.53;;;10.07;81.37
19676;BME280;39539;52.202;9.876;2023-04-12T09:11:20;99312.47;;;9.90;84.87
19676;BME280;39539;52.202;9.876;2023-04-12T09:13:47;99315.97;;;9.79;85.33
19676;BME280;39539;52.202;9.876;2023-04-12T09:16:12;99307.72;;;9.64;86.16
19676;BME280;39539;52.202;9.876;2023-04-12T09:18:48;99303.53;;;9.68;84.14
19676;BME280;39539;52.202;9.876;2023-04-12T09:21:14;99300.09;;;9.67;85.56
19676;BME280;39539;52.202;9.876;2023-04-12T09:23:40;99285.13;;;9.50;87.96
19676;BME280;39539;52.202;9.876;2023-04-12T09:26:05;99296.03;;;9.65;87.59
19676;BME280;39539;52.202;9.876;2023-04-12T09:28:32;99287.19;;;9.71;86.81
19676;BME280;39539;52.202;9.876;2023-04-12T09:30:59;99287.72;;;9.73;87.20
19676;BME280;39539;52.202;9.876;2023-04-12T09:33:37;99280.59;;;9.62;89.29
19676;BME280;39539;52.202;9.876;2023-04-12T09:36:05;99289.91;;;9.76;91.26
19676;BME280;39539;52.202;9.876;2023-04-12T09:38:31;99276.56;;;9.71;91.36
19676;BME280;39539;52.202;9.876;2023-04-12T09:41:20;99275.31;;;9.90;91.37
19676;BME280;39539;52.202;9.876;2023-04-12T09:43:51;99274.94;;;9.99;92.13
19676;BME280;39539;52.202;9.876;2023-04-12T09:46:16;99273.53;;;10.08;92.69
19676;BME280;39539;52.202;9.876;2023-04-12T09:48:50;99258.16;;;10.10;91.97
19676;BME280;39539;52.202;9.876;2023-04-12T09:53:57;99255.59;;;10.15;92.52
19676;BME280;39539;52.202;9.876;2023-04-12T09:56:27;99250.50;;;9.97;94.56
19676;BME280;39539;52.202;9.876;2023-04-12T09:58:53;99246.75;;;9.81;95.00
19676;BME280;39539;52.202;9.876;2023-04-12T10:01:21;99235.44;;;9.85;96.34
19676;BME280;39539;52.202;9.876;2023-04-12T10:03:48;99235.34;;;9.80;94.92
19676;BME280;39539;52.202;9.876;2023-04-12T10:06:14;99216.59;;;9.87;98.90
19676;BME280;39539;52.202;9.876;2023-04-12T10:08:40;99222.63;;;10.11;96.78
19676;BME280;39539;52.202;9.876;2023-04-12T10:11:06;99192.09;;;9.97;95.68
19676;BME280;39539;52.202;9.876;2023-04-12T10:13:34;99197.63;;;9.95;97.71
19676;BME280;39539;52.202;9.876;2023-04-12T10:16:01;99206.59;;;10.06;96.78
19676;BME280;39539;52.202;9.876;2023-04-12T10:18:30;99209.81;;;10.08;97.46
19676;BME280;39539;52.202;9.876;2023-04-12T10:20:56;99223.69;;;10.27;95.43
19676;BME280;39539;52.202;9.876;2023-04-12T10:23:22;99205.72;;;10.17;94.42
19676;BME280;39539;52.202;9.876;2023-04-12T10:25:48;99213.66;;;10.00;95.77
19676;BME280;39539;52.202;9.876;2023-04-12T10:28:14;99224.22;;;10.12;94.71
19676;BME280;39539;52.202;9.876;2023-04-12T10:30:41;99224.03;;;10.02;94.32
19676;BME280;39539;52.202;9.876;2023-04-12T10:33:11;99215.19;;;10.13;94.31
19676;BME280;39539;52.202;9.876;2023-04-12T10:35:56;99200.94;;;10.31;93.73
19676;BME280;39539;52.202;9.876;2023-04-12T10:38:25;99197.13;;;10.44;92.10
19676;BME280;39539;52.202;9.876;2023-04-12T10:41:21;99209.38;;;10.78;92.56
19676;BME280;39539;52.202;9.876;2023-04-12T10:43:51;99188.22;;;10.89;90.44
19676;BME280;39539;52.202;9.876;2023-04-12T10:49:14;99175.25;;;10.92;88.94
19676;BME280;39539;52.202;9.876;2023-04-12T10:54:29;99179.75;;;10.92;90.53
19676;BME280;39539;52.202;9.876;2023-04-12T10:56:55;99164.75;;;11.02;91.67
19676;BME280;39539;52.202;9.876;2023-04-12T10:59:21;99173.09;;;11.11;93.47
19676;BME280;39539;52.202;9.876;2023-04-12T11:04:31;99139.06;;;10.69;92.02
19676;BME280;39539;52.202;9.876;2023-04-12T11:07:01;99170.47;;;10.55;93.71
19676;BME280;39539;52.202;9.876;2023-04-12T11:22:15;99166.88;;;10.45;93.49
19676;BME280;39539;52.202;9.876;2023-04-12T11:24:51;99168.41;;;10.41;95.07
19676;BME280;39539;52.202;9.876;2023-04-12T11:27:19;99162.94;;;10.47;96.61
19676;BME280;39539;52.202;9.876;2023-04-12T11:29:48;99157.16;;;10.50;95.56
19676;BME280;39539;52.202;9.876;2023-04-12T11:32:13;99155.78;;;10.70;94.52
19676;BME280;39539;52.202;9.876;2023-04-12T11:34:41;99155.25;;;10.68;94.01
19676;BME280;39539;52.202;9.876;2023-04-12T11:37:08;99158.22;;;10.71;92.77
19676;BME280;39539;52.202;9.876;2023-04-12T11:39:38;99158.00;;;10.73;94.11
19676;BME280;39539;52.202;9.876;2023-04-12T11:42:04;99142.69;;;10.63;93.31
19676;BME280;39539;52.202;9.876;2023-04-12T11:44:33;99132.22;;;10.73;94.52
19676;BME280;39539;52.202;9.876;2023-04-12T11:46:59;99129.09;;;10.98;93.78
19676;BME280;39539;52.202;9.876;2023-04-12T11:49:26;99130.47;;;11.28;92.32
19676;BME280;39539;52.202;9.876;2023-04-12T11:52:02;99133.06;;;11.23;90.46
19676;BME280;39539;52.202;9.876;2023-04-12T11:54:29;99124.72;;;11.36;89.72
19676;BME280;39539;52.202;9.876;2023-04-12T11:56:56;99113.22;;;11.31;90.79
19676;BME280;39539;52.202;9.876;2023-04-12T11:59:22;99121.31;;;11.41;90.82
19676;BME280;39539;52.202;9.876;2023-04-12T12:01:50;99105.97;;;11.26;90.73
19676;BME280;39539;52.202;9.876;2023-04-12T12:04:16;99100.56;;;11.16;90.30
19676;BME280;39539;52.202;9.876;2023-04-12T12:06:42;99113.00;;;11.10;91.12
19676;BME280;39539;52.202;9.876;2023-04-12T12:09:09;99107.91;;;11.09;92.59
19676;BME280;39539;52.202;9.876;2023-04-12T12:11:35;99108.28;;;11.17;91.33
19676;BME280;39539;52.202;9.876;2023-04-12T12:14:01;99115.72;;;11.42;91.28
19676;BME280;39539;52.202;9.876;2023-04-12T12:16:28;99114.47;;;11.50;91.81
19676;BME280;39539;52.202;9.876;2023-04-12T12:18:54;99101.25;;;11.60;91.01
19676;BME280;39539;52.202;9.876;2023-04-12T12:21:20;99108.50;;;11.65;91.72
19676;BME280;39539;52.202;9.876;2023-04-12T12:23:46;99100.34;;;11.77;89.46
19676;BME280;39539;52.202;9.876;2023-04-12T12:26:21;99098.78;;;11.81;89.52
19676;BME280;39539;52.202;9.876;2023-04-12T12:28:54;99095.28;;;12.07;89.76
19676;BME280;39539;52.202;9.876;2023-04-12T12:31:23;99088.91;;;12.46;88.24
19676;BME280;39539;52.202;9.876;2023-04-12T12:33:54;99089.09;;;12.92;85.60
19676;BME280;39539;52.202;9.876;2023-04-12T12:36:28;99081.50;;;13.41;85.31
19676;BME280;39539;52.202;9.876;2023-04-12T12:38:53;99073.00;;;13.60;82.37
19676;BME280;39539;52.202;9.876;2023-04-12T12:41:20;99067.09;;;13.32;81.49
19676;BME280;39539;52.202;9.876;2023-04-12T12:43:51;99071.94;;;13.45;81.67
19676;BME280;39539;52.202;9.876;2023-04-12T12:46:18;99054.28;;;13.44;81.36
19676;BME280;39539;52.202;9.876;2023-04-12T12:48:47;99045.72;;;13.22;82.59
19676;BME280;39539;52.202;9.876;2023-04-12T12:51:14;99044.91;;;13.16;82.65
19676;BME280;39539;52.202;9.876;2023-04-12T12:53:42;99048.28;;;12.96;83.54
19676;BME280;39539;52.202;9.876;2023-04-12T12:56:08;99048.28;;;12.86;84.79
19676;BME280;39539;52.202;9.876;2023-04-12T12:58:35;99041.56;;;12.68;86.57
19676;BME280;39539;52.202;9.876;2023-04-12T13:01:01;99039.19;;;12.77;86.24
19676;BME280;39539;52.202;9.876;2023-04-12T13:03:28;99026.78;;;12.45;88.36
19676;BME280;39539;52.202;9.876;2023-04-12T13:05:54;99042.22;;;12.38;88.91
19676;BME280;39539;52.202;9.876;2023-04-12T13:08:20;99039.41;;;12.12;88.66
19676;BME280;39539;52.202;9.876;2023-04-12T13:10:46;99033.59;;;11.83;89.84
19676;BME280;39539;52.202;9.876;2023-04-12T13:13:12;99043.88;;;11.75;91.42
19676;BME280;39539;52.202;9.876;2023-04-12T13:15:37;99045.97;;;11.67;91.61
19676;BME280;39539;52.202;9.876;2023-04-12T13:18:03;99044.34;;;11.61;93.31
19676;BME280;39539;52.202;9.876;2023-04-12T13:20:28;99042.22;;;11.63;93.49
19676;BME280;39539;52.202;9.876;2023-04-12T13:22:53;99039.00;;;11.61;91.68
19676;BME280;39539;52.202;9.876;2023-04-12T13:25:19;99046.03;;;11.73;94.20
19676;BME280;39539;52.202;9.876;2023-04-12T13:27:47;99030.25;;;11.98;92.14
19676;BME280;39539;52.202;9.876;2023-04-12T13:30:13;99048.28;;;12.28;92.43
19676;BME280;39539;52.202;9.876;2023-04-12T13:32:38;99056.66;;;12.52;89.33